Time;durP1;ratioP1;P1;durP2;ratioP2;P2;SDS_P1;SDS_P2;PMS_P1;PMS_P2;Temp;Humidity;BMP_temperature;BMP_pressure;BME280_temperature;BME280_humidity;BME280_pressure;Samples;Min_cycle;Max_cycle;Signal;HPM_P1;HPM_P2
2024/02/26 00:01:26;;;;;;;4.00;2.23;;;9.20;67.30;;;;;;5046431;28;20466;-73
2024/02/26 00:03:52;;;;;;;3.40;2.23;;;9.20;67.50;;;;;;5042437;28;20418;-72
2024/02/26 00:06:18;;;;;;;2.70;2.17;;;9.10;67.90;;;;;;5053144;28;20467;-73
2024/02/26 00:08:44;;;;;;;2.60;1.80;;;9.00;68.00;;;;;;5042246;28;20962;-72
2024/02/26 00:11:10;;;;;;;2.50;1.73;;;9.10;67.90;;;;;;5042608;28;20519;-72
2024/02/26 00:13:36;;;;;;;3.27;2.33;;;9.00;67.70;;;;;;5043263;28;20612;-72
2024/02/26 00:16:03;;;;;;;7.07;2.70;;;9.00;68.20;;;;;;5046318;28;20208;-72
2024/02/26 00:18:29;;;;;;;5.10;2.30;;;9.10;66.60;;;;;;5053018;28;20492;-73
2024/02/26 00:20:55;;;;;;;4.80;2.77;;;9.00;67.50;;;;;;5048423;28;20451;-72
2024/02/26 00:23:21;;;;;;;4.90;2.50;;;8.90;67.90;;;;;;5051649;28;20184;-73
2024/02/26 00:25:47;;;;;;;3.77;2.53;;;8.90;68.00;;;;;;5049456;28;20562;-72
2024/02/26 00:28:13;;;;;;;4.43;2.93;;;8.80;68.20;;;;;;5049582;28;20789;-71
2024/02/26 00:30:39;;;;;;;5.60;2.93;;;8.70;68.50;;;;;;5044403;28;20483;-72
2024/02/26 00:33:04;;;;;;;3.07;1.97;;;8.80;68.30;;;;;;5051186;28;20446;-72
2024/02/26 00:35:30;;;;;;;8.50;2.40;;;8.70;68.50;;;;;;5052798;28;20664;-73
2024/02/26 00:37:55;;;;;;;2.47;2.33;;;8.80;68.30;;;;;;5052509;28;20180;-72
2024/02/26 00:40:21;;;;;;;3.50;2.40;;;8.80;67.90;;;;;;5050458;28;20287;-73
2024/02/26 00:42:47;;;;;;;4.13;2.43;;;8.80;68.00;;;;;;5045263;28;20696;-71
2024/02/26 00:45:13;;;;;;;3.30;2.33;;;8.80;68.20;;;;;;5046391;28;20489;-72
2024/02/26 00:47:41;;;;;;;3.70;2.33;;;8.80;68.20;;;;;;5051224;28;20441;-72
2024/02/26 00:50:08;;;;;;;5.23;2.47;;;8.70;68.20;;;;;;5046061;28;20423;-71
2024/02/26 00:52:34;;;;;;;3.33;2.20;;;8.80;68.50;;;;;;5044598;28;20831;-72
2024/02/26 00:54:59;;;;;;;4.10;2.50;;;8.80;68.50;;;;;;5049673;28;20915;-72
2024/02/26 00:57:25;;;;;;;4.13;2.57;;;8.70;68.50;;;;;;5050122;28;20982;-72
2024/02/26 00:59:51;;;;;;;3.17;2.13;;;8.70;68.50;;;;;;5048681;28;20229;-72
2024/02/26 01:02:16;;;;;;;3.33;2.50;;;8.70;68.60;;;;;;5043898;28;20208;-72
2024/02/26 01:04:42;;;;;;;4.63;2.87;;;8.80;68.60;;;;;;5045020;28;20184;-74
2024/02/26 01:07:09;;;;;;;3.03;2.13;;;8.70;68.50;;;;;;5056291;28;20227;-72
2024/02/26 01:09:34;;;;;;;2.50;2.17;;;8.80;68.50;;;;;;5058185;28;20176;-73
2024/02/26 01:12:00;;;;;;;6.33;2.03;;;8.70;68.30;;;;;;5047032;28;20835;-73
2024/02/26 01:14:25;;;;;;;4.37;2.90;;;8.80;68.30;;;;;;5048474;28;20184;-71
2024/02/26 01:16:51;;;;;;;2.50;2.37;;;8.70;68.60;;;;;;5052044;28;20201;-71
2024/02/26 01:19:17;;;;;;;4.87;2.40;;;8.80;68.80;;;;;;5048814;28;20176;-71
2024/02/26 01:21:42;;;;;;;3.50;2.43;;;8.70;68.80;;;;;;5044405;28;20231;-73
2024/02/26 01:24:08;;;;;;;3.30;2.50;;;8.70;68.80;;;;;;5037809;28;20189;-72
2024/02/26 01:26:33;;;;;;;4.10;2.70;;;8.60;68.80;;;;;;5051430;28;20216;-73
2024/02/26 01:28:59;;;;;;;4.40;2.50;;;8.60;68.80;;;;;;5051500;28;20196;-71
2024/02/26 01:31:24;;;;;;;3.73;2.73;;;8.60;68.80;;;;;;5046437;28;20217;-71
2024/02/26 01:33:50;;;;;;;4.83;2.57;;;8.70;68.80;;;;;;5044258;28;20180;-70
2024/02/26 01:36:16;;;;;;;3.70;2.33;;;8.60;68.80;;;;;;5051395;28;20218;-73
2024/02/26 01:38:41;;;;;;;8.43;2.30;;;8.60;68.80;;;;;;5048710;28;20192;-72
2024/02/26 01:41:07;;;;;;;2.90;2.03;;;8.70;68.80;;;;;;5048790;28;20922;-71
2024/02/26 01:43:32;;;;;;;3.23;2.50;;;8.80;68.60;;;;;;5041163;28;20185;-71
2024/02/26 01:45:58;;;;;;;3.87;2.90;;;8.70;68.30;;;;;;5050815;28;20219;-73
2024/02/26 01:48:25;;;;;;;3.27;2.50;;;8.60;68.50;;;;;;5050954;28;20607;-74
2024/02/26 01:50:51;;;;;;;5.63;2.50;;;8.60;68.90;;;;;;5046578;28;20447;-70
2024/02/26 01:53:18;;;;;;;4.90;2.90;;;8.50;69.10;;;;;;5044366;28;21020;-72
2024/02/26 01:55:44;;;;;;;6.00;3.23;;;8.50;69.20;;;;;;5052097;28;20431;-73
2024/02/26 01:58:14;;;;;;;2.47;2.20;;;8.40;69.10;;;;;;5057167;28;20427;-73
2024/02/26 02:00:40;;;;;;;3.50;2.67;;;8.50;69.10;;;;;;5032835;28;20204;-75
2024/02/26 02:03:06;;;;;;;4.40;2.60;;;8.40;69.20;;;;;;5046490;28;21202;-71
2024/02/26 02:05:33;;;;;;;3.33;2.37;;;8.40;69.40;;;;;;5040719;28;20181;-71
2024/02/26 02:07:59;;;;;;;3.97;2.90;;;8.30;69.50;;;;;;5046645;28;20432;-74
2024/02/26 02:10:26;;;;;;;3.47;2.40;;;8.20;69.50;;;;;;5054474;28;20476;-72
2024/02/26 02:12:52;;;;;;;5.87;2.77;;;8.20;69.80;;;;;;5049469;28;20180;-72
2024/02/26 02:15:18;;;;;;;3.93;2.33;;;8.20;69.50;;;;;;5054789;28;20425;-72
2024/02/26 02:17:43;;;;;;;4.47;2.63;;;8.10;69.70;;;;;;5046842;28;20252;-72
2024/02/26 02:20:15;;;;;;;4.07;2.60;;;8.20;69.80;;;;;;5049057;28;20473;-71
2024/02/26 02:22:40;;;;;;;3.33;2.40;;;8.10;69.70;;;;;;5043492;28;20215;-72
2024/02/26 02:25:06;;;;;;;3.40;2.37;;;8.10;69.80;;;;;;5041666;28;20411;-69
2024/02/26 02:27:32;;;;;;;4.37;2.23;;;8.20;69.80;;;;;;5027502;28;20297;-71
2024/02/26 02:29:58;;;;;;;3.37;2.53;;;8.30;69.70;;;;;;5047974;28;20942;-71
2024/02/26 02:32:25;;;;;;;5.67;3.17;;;8.40;69.20;;;;;;5045589;28;20240;-71
2024/02/26 02:34:51;;;;;;;5.23;2.93;;;8.40;69.40;;;;;;5044760;28;20276;-73
2024/02/26 02:37:16;;;;;;;3.90;2.70;;;8.40;69.50;;;;;;5048877;28;20662;-72
2024/02/26 02:39:43;;;;;;;4.47;2.83;;;8.50;69.20;;;;;;5050029;28;20185;-71
2024/02/26 02:42:09;;;;;;;3.33;2.50;;;8.50;69.10;;;;;;5034196;28;20212;-71
2024/02/26 02:44:34;;;;;;;5.63;2.80;;;8.50;69.20;;;;;;5039817;28;20411;-74
2024/02/26 02:47:00;;;;;;;3.83;2.47;;;8.50;69.10;;;;;;5045865;28;20700;-71
2024/02/26 02:49:25;;;;;;;3.33;2.47;;;8.50;69.20;;;;;;5040463;28;20518;-72
2024/02/26 02:51:53;;;;;;;3.40;2.50;;;8.50;69.20;;;;;;5037715;28;20208;-72
2024/02/26 02:54:18;;;;;;;6.00;2.87;;;8.50;69.20;;;;;;5046462;28;20188;-73
2024/02/26 02:56:44;;;;;;;3.77;2.50;;;8.60;69.20;;;;;;5043435;28;20422;-72
2024/02/26 02:59:10;;;;;;;3.70;2.53;;;8.70;68.90;;;;;;5047266;28;20602;-72
2024/02/26 03:01:35;;;;;;;5.27;2.70;;;8.60;68.50;;;;;;5040941;28;20308;-71
2024/02/26 03:04:01;;;;;;;3.00;1.97;;;8.60;68.20;;;;;;5043251;28;20189;-73
2024/02/26 03:06:28;;;;;;;3.30;2.30;;;8.60;68.20;;;;;;5049827;28;20207;-72
2024/02/26 03:08:54;;;;;;;2.80;2.07;;;8.50;68.30;;;;;;5049842;28;20665;-71
2024/02/26 03:11:20;;;;;;;5.00;2.07;;;8.50;68.60;;;;;;5037512;28;20526;-71
2024/02/26 03:13:45;;;;;;;2.70;1.70;;;8.50;68.80;;;;;;5028272;28;20878;-72
2024/02/26 03:16:11;;;;;;;4.37;2.43;;;8.60;68.80;;;;;;5047233;28;20192;-71
2024/02/26 03:18:40;;;;;;;3.97;2.10;;;8.80;68.80;;;;;;5045977;28;20197;-73
2024/02/26 03:21:06;;;;;;;4.77;2.60;;;8.80;68.50;;;;;;5043373;28;20455;-71
2024/02/26 03:23:36;;;;;;;4.20;2.20;;;8.80;68.60;;;;;;5044681;28;20432;-72
2024/02/26 03:26:04;;;;;;;4.30;2.07;;;8.70;68.60;;;;;;5050134;28;20463;-71
2024/02/26 03:28:32;;;;;;;3.30;2.43;;;8.70;68.90;;;;;;5055472;28;20434;-71
2024/02/26 03:30:59;;;;;;;4.90;2.00;;;8.70;68.80;;;;;;5045923;28;20494;-71
2024/02/26 03:33:25;;;;;;;3.53;2.00;;;8.80;68.80;;;;;;5047848;28;20892;-71
2024/02/26 03:35:50;;;;;;;3.17;2.57;;;8.80;68.60;;;;;;5048706;28;20423;-72
2024/02/26 03:38:16;;;;;;;3.20;2.20;;;8.90;68.60;;;;;;5055512;28;20429;-73
2024/02/26 03:40:41;;;;;;;3.13;1.93;;;8.90;68.60;;;;;;5048379;28;20205;-73
2024/02/26 03:43:07;;;;;;;4.33;2.57;;;8.70;68.60;;;;;;5043532;28;20178;-74
2024/02/26 03:45:33;;;;;;;7.20;2.50;;;8.80;68.60;;;;;;5043306;28;20185;-72
2024/02/26 03:47:58;;;;;;;3.77;2.33;;;8.90;68.80;;;;;;5046962;28;20189;-72
2024/02/26 03:50:24;;;;;;;3.20;2.23;;;9.00;68.80;;;;;;5044516;28;20411;-72
2024/02/26 03:52:50;;;;;;;2.13;1.90;;;9.00;68.80;;;;;;5039538;28;20181;-72
2024/02/26 03:55:15;;;;;;;4.50;1.97;;;9.00;68.80;;;;;;5046341;28;20181;-72
2024/02/26 03:57:41;;;;;;;4.13;2.20;;;9.00;68.80;;;;;;5049973;28;20185;-71
2024/02/26 04:00:07;;;;;;;4.73;3.17;;;9.00;68.80;;;;;;5050443;28;20180;-71
2024/02/26 04:02:32;;;;;;;6.40;2.40;;;9.00;68.60;;;;;;5043611;28;20208;-72
2024/02/26 04:04:59;;;;;;;4.60;2.80;;;9.00;68.50;;;;;;5049007;28;20419;-72
2024/02/26 04:07:24;;;;;;;7.50;3.10;;;9.00;68.50;;;;;;5055307;28;20216;-73
2024/02/26 04:09:50;;;;;;;5.67;2.60;;;9.00;68.20;;;;;;5047641;28;20426;-72
2024/02/26 04:12:16;;;;;;;2.77;2.37;;;9.00;68.00;;;;;;5051652;28;20544;-75
2024/02/26 04:14:41;;;;;;;7.30;3.00;;;9.00;68.20;;;;;;5051069;28;20177;-71
2024/02/26 04:17:07;;;;;;;4.80;2.73;;;9.00;68.20;;;;;;5053372;28;20966;-72
2024/02/26 04:19:32;;;;;;;6.73;3.30;;;8.80;68.80;;;;;;5057241;28;20192;-73
2024/02/26 04:21:59;;;;;;;5.03;2.80;;;8.60;69.10;;;;;;5054296;28;20200;-73
2024/02/26 04:24:24;;;;;;;4.33;2.90;;;8.60;69.20;;;;;;5051429;28;20212;-70
2024/02/26 04:26:50;;;;;;;3.50;2.70;;;8.60;69.40;;;;;;5052743;28;20494;-72
2024/02/26 04:29:15;;;;;;;4.07;2.97;;;8.50;69.50;;;;;;5050751;28;20177;-73
2024/02/26 04:31:42;;;;;;;7.80;3.07;;;8.50;69.50;;;;;;5045512;28;20295;-71
2024/02/26 04:34:08;;;;;;;5.77;3.00;;;8.40;69.70;;;;;;5051733;28;20185;-73
2024/02/26 04:36:34;;;;;;;4.97;2.30;;;8.40;69.70;;;;;;5052509;28;20464;-72
2024/02/26 04:38:59;;;;;;;4.40;3.03;;;8.50;69.70;;;;;;5053433;28;20922;-73
2024/02/26 04:41:25;;;;;;;4.07;2.33;;;8.50;69.50;;;;;;5043960;28;20288;-72
2024/02/26 04:43:50;;;;;;;4.20;2.40;;;8.50;69.70;;;;;;5054682;28;20185;-73
2024/02/26 04:46:16;;;;;;;5.30;2.60;;;8.50;69.40;;;;;;5048842;28;20208;-74
2024/02/26 04:48:42;;;;;;;3.50;2.23;;;8.60;69.20;;;;;;5053723;28;20237;-70
2024/02/26 04:51:07;;;;;;;4.00;2.50;;;8.70;69.20;;;;;;5046176;28;20219;-73
2024/02/26 04:53:33;;;;;;;5.10;3.20;;;8.70;68.80;;;;;;5045211;28;20185;-70
2024/02/26 04:55:58;;;;;;;3.43;2.50;;;8.60;69.20;;;;;;5047011;28;20211;-72
2024/02/26 04:58:24;;;;;;;3.43;2.50;;;8.40;69.40;;;;;;5053261;28;20552;-72
2024/02/26 05:00:50;;;;;;;3.90;2.70;;;8.40;69.40;;;;;;5043781;28;21812;-71
2024/02/26 05:03:15;;;;;;;4.10;2.73;;;8.40;69.40;;;;;;5046211;28;20196;-73
2024/02/26 05:05:45;;;;;;;5.43;3.10;;;8.40;69.70;;;;;;5050476;28;20603;-71
2024/02/26 05:08:11;;;;;;;4.50;2.90;;;8.40;69.80;;;;;;5048809;28;20544;-72
2024/02/26 05:10:40;;;;;;;5.53;3.27;;;8.40;69.70;;;;;;5045004;28;20533;-74
2024/02/26 05:13:06;;;;;;;2.67;2.00;;;8.40;69.50;;;;;;5047003;28;20169;-72
2024/02/26 05:15:32;;;;;;;2.80;2.07;;;8.40;69.50;;;;;;5045887;28;20548;-73
2024/02/26 05:17:58;;;;;;;7.33;2.57;;;8.50;69.10;;;;;;5064881;22;20960;-73
2024/02/26 05:20:24;;;;;;;3.07;2.00;;;8.60;69.10;;;;;;5043037;28;20189;-71
2024/02/26 05:22:50;;;;;;;3.20;2.37;;;8.60;68.20;;;;;;5040842;28;21297;-73
2024/02/26 05:25:16;;;;;;;3.90;2.20;;;8.60;68.50;;;;;;5045625;28;20192;-72
2024/02/26 05:27:43;;;;;;;3.50;2.40;;;8.50;68.80;;;;;;5054009;28;20553;-71
2024/02/26 05:30:09;;;;;;;3.60;2.30;;;8.60;68.80;;;;;;5042618;28;20276;-73
2024/02/26 05:32:35;;;;;;;4.93;2.60;;;8.60;68.50;;;;;;5043532;28;20440;-72
2024/02/26 05:35:02;;;;;;;4.20;2.50;;;8.50;68.80;;;;;;5039670;28;20422;-72
2024/02/26 05:37:28;;;;;;;3.30;2.23;;;8.50;68.60;;;;;;5044106;28;20260;-71
2024/02/26 05:39:54;;;;;;;2.83;2.23;;;8.40;68.90;;;;;;5040372;28;20519;-71
2024/02/26 05:42:19;;;;;;;4.43;2.90;;;8.60;68.90;;;;;;5042800;28;20254;-71
2024/02/26 05:44:45;;;;;;;4.50;2.73;;;8.50;69.20;;;;;;5036853;28;20184;-70
2024/02/26 05:47:10;;;;;;;4.60;2.43;;;8.30;69.70;;;;;;5047167;28;20242;-71
2024/02/26 05:49:36;;;;;;;4.53;2.80;;;8.20;69.50;;;;;;5037903;28;20246;-71
2024/02/26 05:52:02;;;;;;;4.03;2.80;;;8.10;69.90;;;;;;5042820;28;20233;-71
2024/02/26 05:54:27;;;;;;;7.63;3.23;;;8.00;69.90;;;;;;5045926;28;20180;-71
2024/02/26 05:56:53;;;;;;;4.20;3.07;;;8.00;70.40;;;;;;5044696;28;20432;-71
2024/02/26 05:59:18;;;;;;;4.60;3.00;;;8.00;70.20;;;;;;5045388;28;20661;-71
2024/02/26 06:01:44;;;;;;;4.90;2.40;;;7.90;70.50;;;;;;5042570;28;20221;-73
2024/02/26 06:04:09;;;;;;;4.50;2.93;;;7.90;70.70;;;;;;5042273;28;20177;-72
2024/02/26 06:06:35;;;;;;;3.60;2.83;;;8.00;70.70;;;;;;5043713;28;20213;-72
2024/02/26 06:09:00;;;;;;;4.40;3.07;;;8.00;71.10;;;;;;5052508;28;20865;-72
2024/02/26 06:11:27;;;;;;;6.60;2.90;;;8.00;71.40;;;;;;5041796;28;20247;-71
2024/02/26 06:13:52;;;;;;;6.30;3.67;;;8.10;71.10;;;;;;5053984;28;20194;-72
2024/02/26 06:16:18;;;;;;;4.83;3.07;;;8.00;70.80;;;;;;5047840;28;20412;-72
2024/02/26 06:18:44;;;;;;;5.43;3.70;;;8.00;71.30;;;;;;5054569;28;20204;-72
2024/02/26 06:21:10;;;;;;;5.37;3.10;;;7.90;72.30;;;;;;5042418;28;20567;-73
2024/02/26 06:23:36;;;;;;;7.23;3.73;;;7.90;72.30;;;;;;5038862;28;20188;-72
2024/02/26 06:26:02;;;;;;;6.00;3.23;;;7.90;72.10;;;;;;5038896;28;20468;-71
2024/02/26 06:28:30;;;;;;;6.07;2.97;;;7.90;72.30;;;;;;5047624;28;20430;-73
2024/02/26 06:30:56;;;;;;;5.87;3.20;;;7.90;72.70;;;;;;5041525;28;20212;-73
2024/02/26 06:33:21;;;;;;;4.60;3.30;;;7.90;73.90;;;;;;5049614;28;20426;-72
2024/02/26 06:35:47;;;;;;;5.83;3.10;;;7.80;74.60;;;;;;5039930;28;20193;-72
2024/02/26 06:38:13;;;;;;;5.63;3.20;;;7.70;74.90;;;;;;5047475;28;20215;-72
2024/02/26 06:40:39;;;;;;;3.87;2.97;;;7.70;75.70;;;;;;5037742;28;20268;-73
2024/02/26 06:43:05;;;;;;;4.20;3.13;;;7.70;76.10;;;;;;5045656;28;20514;-72
2024/02/26 06:45:30;;;;;;;5.10;3.10;;;7.80;76.20;;;;;;5036752;28;21123;-72
2024/02/26 06:47:56;;;;;;;4.20;3.10;;;7.70;76.40;;;;;;5044899;28;20641;-72
2024/02/26 06:50:22;;;;;;;5.50;3.10;;;7.70;76.70;;;;;;5036882;28;20258;-72
2024/02/26 06:52:47;;;;;;;6.30;3.23;;;7.70;76.70;;;;;;5041751;28;20212;-72
2024/02/26 06:55:13;;;;;;;4.83;3.20;;;7.70;76.50;;;;;;5039617;28;20176;-72
2024/02/26 06:57:39;;;;;;;4.30;2.77;;;7.70;76.40;;;;;;5042340;28;20189;-71
2024/02/26 07:00:05;;;;;;;3.93;2.57;;;7.70;76.10;;;;;;5036920;28;20426;-72
2024/02/26 07:02:31;;;;;;;6.60;3.23;;;7.80;75.50;;;;;;5041401;28;20295;-72
2024/02/26 07:04:58;;;;;;;4.97;3.30;;;8.00;75.80;;;;;;5036110;28;20833;-73
2024/02/26 07:07:24;;;;;;;5.63;3.50;;;8.00;75.20;;;;;;5041431;28;20555;-75
2024/02/26 07:09:49;;;;;;;5.77;3.50;;;8.00;75.20;;;;;;5041973;28;20426;-72
2024/02/26 07:12:15;;;;;;;4.93;2.70;;;8.10;75.40;;;;;;5042416;28;20524;-72
2024/02/26 07:14:42;;;;;;;5.43;3.50;;;8.20;75.80;;;;;;5044479;28;20195;-73
2024/02/26 07:17:08;;;;;;;4.77;3.10;;;8.20;75.90;;;;;;5050758;28;20430;-72
2024/02/26 07:19:33;;;;;;;5.80;3.33;;;8.40;75.90;;;;;;5046607;28;20435;-70
2024/02/26 07:22:01;;;;;;;5.17;3.40;;;8.40;75.50;;;;;;5046194;28;20445;-71
2024/02/26 07:24:27;;;;;;;4.53;3.67;;;8.50;75.20;;;;;;5045459;28;20614;-72
2024/02/26 07:26:55;;;;;;;5.80;3.80;;;8.60;75.10;;;;;;5047093;28;20554;-72
2024/02/26 07:29:20;;;;;;;5.30;3.57;;;8.60;74.90;;;;;;5046209;28;20930;-73
2024/02/26 07:31:47;;;;;;;6.77;4.20;;;8.60;74.80;;;;;;5052874;28;20524;-73
2024/02/26 07:34:13;;;;;;;7.40;3.90;;;8.70;74.20;;;;;;5052713;28;20487;-72
2024/02/26 07:36:38;;;;;;;6.70;4.10;;;8.80;74.00;;;;;;5052176;28;20430;-74
2024/02/26 07:39:05;;;;;;;5.53;3.87;;;8.80;74.00;;;;;;5041699;28;20480;-72
2024/02/26 07:41:30;;;;;;;6.30;3.53;;;8.80;73.60;;;;;;5046835;28;20288;-72
2024/02/26 07:43:56;;;;;;;7.17;4.03;;;8.90;73.20;;;;;;5049164;28;20527;-73
2024/02/26 07:46:21;;;;;;;5.37;3.77;;;8.80;73.20;;;;;;5040428;28;20687;-73
2024/02/26 07:48:47;;;;;;;6.20;3.53;;;8.90;73.50;;;;;;5052129;28;20220;-72
2024/02/26 07:51:17;;;;;;;6.40;3.57;;;9.00;73.70;;;;;;5046907;28;20247;-73
2024/02/26 07:53:42;;;;;;;7.80;3.70;;;9.00;73.70;;;;;;5048200;28;20177;-71
2024/02/26 07:56:09;;;;;;;4.97;3.37;;;9.10;73.30;;;;;;5047968;28;20431;-73
2024/02/26 07:58:35;;;;;;;5.33;3.33;;;9.20;71.60;;;;;;5050460;28;20185;-71
2024/02/26 08:01:00;;;;;;;4.37;3.37;;;9.30;70.50;;;;;;5043801;28;20473;-72
2024/02/26 08:03:27;;;;;;;5.00;3.37;;;9.30;70.50;;;;;;5046525;28;20180;-73
2024/02/26 08:05:53;;;;;;;5.70;3.53;;;9.40;70.50;;;;;;5052186;28;20236;-73
2024/02/26 08:08:18;;;;;;;5.23;3.30;;;9.50;70.40;;;;;;5060263;28;20943;-77
2024/02/26 08:10:44;;;;;;;6.50;2.87;;;9.60;69.10;;;;;;5049089;28;20204;-76
2024/02/26 08:13:09;;;;;;;4.30;2.87;;;9.70;68.00;;;;;;5051651;28;20243;-73
2024/02/26 08:15:37;;;;;;;4.90;2.73;;;9.70;66.40;;;;;;5050460;28;20196;-72
2024/02/26 08:18:03;;;;;;;4.17;2.70;;;9.80;66.30;;;;;;5042558;28;20201;-72
2024/02/26 08:20:30;;;;;;;3.47;2.30;;;9.90;66.00;;;;;;5036855;28;20442;-74
2024/02/26 08:22:56;;;;;;;7.87;2.70;;;9.90;66.10;;;;;;5044314;28;20427;-72
2024/02/26 08:25:22;;;;;;;5.97;2.87;;;10.00;66.30;;;;;;5040911;28;20439;-72
2024/02/26 08:27:47;;;;;;;3.60;2.70;;;10.00;66.00;;;;;;5043977;28;20475;-75
2024/02/26 08:30:16;;;;;;;5.23;3.00;;;10.00;65.80;;;;;;5049206;28;20533;-73
2024/02/26 08:32:42;;;;;;;5.97;3.27;;;9.90;65.80;;;;;;5041933;28;20196;-72
2024/02/26 08:35:08;;;;;;;7.47;3.87;;;9.90;65.70;;;;;;5044882;28;20499;-73
2024/02/26 08:37:34;;;;;;;5.80;3.10;;;9.90;65.80;;;;;;5042013;28;20554;-72
2024/02/26 08:39:59;;;;;;;5.83;3.00;;;9.90;65.80;;;;;;5042526;28;20193;-73
2024/02/26 08:42:25;;;;;;;5.10;3.40;;;10.00;65.70;;;;;;5039646;28;20233;-72
2024/02/26 08:44:50;;;;;;;5.17;3.07;;;10.10;65.60;;;;;;5044262;28;20650;-73
2024/02/26 08:47:16;;;;;;;5.67;3.20;;;10.00;65.00;;;;;;5041141;28;20205;-72
2024/02/26 08:49:45;;;;;;;3.87;2.97;;;10.00;65.30;;;;;;5050796;28;20192;-73
2024/02/26 08:52:11;;;;;;;8.20;3.70;;;9.90;65.30;;;;;;5044748;28;20640;-74
2024/02/26 08:54:36;;;;;;;4.67;3.07;;;10.00;65.10;;;;;;5048966;28;20463;-74
2024/02/26 08:57:02;;;;;;;5.33;3.10;;;10.10;65.10;;;;;;5051839;28;20235;-73
2024/02/26 08:59:28;;;;;;;5.03;3.10;;;10.10;64.80;;;;;;5049224;28;20704;-74
2024/02/26 09:01:54;;;;;;;8.47;3.90;;;10.00;65.00;;;;;;5055154;28;20458;-71
2024/02/26 09:04:19;;;;;;;6.70;3.60;;;9.90;64.80;;;;;;5048293;28;20653;-73
2024/02/26 09:06:45;;;;;;;4.60;2.93;;;9.70;65.30;;;;;;5034599;28;20578;-72
2024/02/26 09:09:11;;;;;;;5.43;3.00;;;9.70;65.00;;;;;;5045092;28;20184;-74
2024/02/26 09:11:36;;;;;;;7.53;3.70;;;9.80;65.00;;;;;;5043455;28;20218;-73
2024/02/26 09:14:03;;;;;;;6.60;3.27;;;9.90;65.00;;;;;;5045933;28;20542;-71
2024/02/26 09:16:29;;;;;;;6.93;3.20;;;10.10;65.10;;;;;;5069584;28;20606;-73
2024/02/26 09:18:55;;;;;;;7.13;3.47;;;10.10;64.70;;;;;;5049347;28;20858;-73
2024/02/26 09:21:23;;;;;;;5.43;2.97;;;10.00;64.70;;;;;;5043646;28;20462;-73
2024/02/26 09:23:50;;;;;;;4.47;3.30;;;10.30;65.00;;;;;;5043817;28;20189;-72
2024/02/26 09:26:16;;;;;;;6.43;3.03;;;10.40;64.80;;;;;;5054644;28;20462;-72
2024/02/26 09:28:42;;;;;;;6.90;3.73;;;10.30;64.50;;;;;;5048309;28;20434;-73
2024/02/26 09:31:07;;;;;;;6.03;4.03;;;10.50;64.80;;;;;;5044791;28;20450;-74
2024/02/26 09:33:33;;;;;;;6.73;4.40;;;10.60;64.70;;;;;;5044628;28;20282;-73
2024/02/26 09:36:00;;;;;;;7.60;4.60;;;10.40;64.80;;;;;;5055740;28;20192;-73
2024/02/26 09:38:26;;;;;;;7.00;3.87;;;10.40;65.30;;;;;;5049564;28;20270;-72
2024/02/26 09:40:52;;;;;;;10.70;4.30;;;10.50;65.30;;;;;;5050054;28;20497;-72
2024/02/26 09:43:22;;;;;;;6.50;3.90;;;10.60;64.80;;;;;;5040815;28;20456;-71
2024/02/26 09:45:51;;;;;;;12.80;5.03;;;10.60;64.70;;;;;;5043728;28;20424;-72
2024/02/26 09:48:17;;;;;;;7.50;4.27;;;10.50;64.80;;;;;;5044539;28;20435;-74
2024/02/26 09:50:43;;;;;;;8.93;5.10;;;10.50;65.30;;;;;;5048967;28;20512;-71
2024/02/26 09:53:12;;;;;;;6.43;4.50;;;10.50;65.60;;;;;;5048736;28;20200;-74
2024/02/26 09:55:37;;;;;;;7.97;4.17;;;10.60;65.00;;;;;;5049095;28;20428;-72
2024/02/26 09:58:06;;;;;;;7.07;4.63;;;10.80;64.70;;;;;;5047181;28;20441;-73
2024/02/26 10:00:35;;;;;;;8.40;3.93;;;11.00;64.40;;;;;;5047780;28;20576;-73
2024/02/26 10:03:05;;;;;;;7.47;4.10;;;11.20;63.90;;;;;;5037839;28;20796;-72
2024/02/26 10:05:32;;;;;;;6.23;4.43;;;11.40;63.20;;;;;;5040030;28;20769;-73
2024/02/26 10:07:58;;;;;;;7.33;4.10;;;11.50;62.90;;;;;;5042491;28;20459;-75
2024/02/26 10:10:24;;;;;;;5.53;3.30;;;11.40;62.80;;;;;;5039010;28;20481;-72
2024/02/26 10:12:50;;;;;;;7.33;3.73;;;11.30;62.30;;;;;;5042936;28;20521;-73
2024/02/26 10:15:15;;;;;;;15.33;5.40;;;11.30;62.30;;;;;;5040997;28;20835;-74
2024/02/26 10:17:41;;;;;;;10.33;5.00;;;11.40;62.50;;;;;;5044566;28;20203;-72
2024/02/26 10:20:17;;;;;;;9.03;4.30;;;11.10;63.50;;;;;;5040773;28;20253;-71
2024/02/26 10:22:44;;;;;;;9.67;4.90;;;11.20;63.70;;;;;;5047968;28;20242;-71
2024/02/26 10:25:10;;;;;;;8.50;3.60;;;11.10;62.90;;;;;;5039129;28;20533;-75
2024/02/26 10:27:36;;;;;;;7.10;4.03;;;11.20;63.20;;;;;;5052458;28;20478;-73
2024/02/26 10:30:21;;;;;;;7.37;3.40;;;11.50;62.80;;;;;;5045339;28;20212;-73
2024/02/26 10:32:48;;;;;;;7.70;4.20;;;11.80;62.20;;;;;;5044404;28;20192;-73
2024/02/26 10:35:16;;;;;;;7.40;4.17;;;12.10;62.00;;;;;;5048259;28;20407;-73
2024/02/26 10:37:42;;;;;;;8.63;5.00;;;12.20;61.50;;;;;;5047781;28;20427;-74
2024/02/26 10:40:11;;;;;;;12.73;5.13;;;12.30;61.60;;;;;;5045243;28;20419;-71
2024/02/26 10:42:37;;;;;;;8.00;5.03;;;12.30;61.60;;;;;;5039868;28;20451;-72
2024/02/26 10:45:03;;;;;;;8.93;5.17;;;12.30;61.20;;;;;;5046797;28;20428;-72
2024/02/26 10:47:30;;;;;;;6.97;4.10;;;12.40;61.30;;;;;;5049032;28;20460;-72
2024/02/26 10:49:56;;;;;;;8.77;4.10;;;12.50;60.90;;;;;;5047085;28;20415;-71
2024/02/26 10:52:25;;;;;;;6.00;3.40;;;12.60;60.70;;;;;;5049173;28;20975;-72
2024/02/26 10:54:56;;;;;;;9.03;4.53;;;12.90;59.90;;;;;;5039318;28;20498;-73
2024/02/26 10:57:24;;;;;;;9.63;4.70;;;13.00;59.60;;;;;;5039262;28;20627;-72
2024/02/26 10:59:51;;;;;;;8.67;4.30;;;13.00;59.90;;;;;;5039033;28;20417;-71
2024/02/26 11:02:17;;;;;;;9.47;4.90;;;13.20;59.50;;;;;;5040429;28;20463;-72
2024/02/26 11:04:44;;;;;;;6.20;3.60;;;13.40;59.20;;;;;;5043207;28;20781;-71
2024/02/26 11:07:10;;;;;;;8.80;4.10;;;13.60;58.20;;;;;;5043474;28;20454;-72
2024/02/26 11:09:41;;;;;;;9.20;4.60;;;13.40;58.50;;;;;;5048878;28;20437;-72
2024/02/26 11:12:12;;;;;;;8.40;4.17;;;13.50;58.70;;;;;;5041498;28;21061;-73
2024/02/26 11:14:39;;;;;;;9.53;5.17;;;13.50;58.00;;;;;;5050826;28;20813;-74
2024/02/26 11:17:08;;;;;;;7.67;4.40;;;13.10;59.10;;;;;;5042363;28;20434;-72
2024/02/26 11:19:36;;;;;;;12.23;5.00;;;13.10;59.10;;;;;;5053355;28;20533;-73
2024/02/26 11:22:03;;;;;;;7.90;4.57;;;13.10;59.90;;;;;;5045901;28;20459;-72
2024/02/26 11:24:29;;;;;;;10.00;4.23;;;13.30;59.30;;;;;;5054160;28;20503;-72
2024/02/26 11:26:58;;;;;;;7.63;4.60;;;13.50;59.20;;;;;;5053728;28;20535;-75
2024/02/26 11:29:27;;;;;;;8.23;4.77;;;12.80;59.90;;;;;;5057844;28;20318;-72
2024/02/26 11:31:53;;;;;;;8.50;4.70;;;12.20;61.30;;;;;;5046648;28;20458;-73
2024/02/26 11:34:19;;;;;;;8.00;4.10;;;12.20;61.90;;;;;;5057328;28;20442;-74
2024/02/26 11:36:46;;;;;;;11.03;4.60;;;12.30;61.70;;;;;;5066157;28;20809;-74
2024/02/26 11:39:12;;;;;;;9.93;4.90;;;12.60;61.50;;;;;;5051380;28;20426;-71
2024/02/26 11:41:38;;;;;;;8.73;4.03;;;12.90;61.00;;;;;;5045325;28;20552;-72
2024/02/26 11:44:06;;;;;;;5.97;3.20;;;13.00;60.70;;;;;;5045954;28;20784;-73
2024/02/26 11:46:38;;;;;;;7.23;2.97;;;13.10;60.10;;;;;;5043580;28;20465;-72
2024/02/26 11:49:24;;;;;;;4.80;2.93;;;13.10;59.90;;;;;;5043084;28;20427;-71
2024/02/26 11:52:03;;;;;;;7.83;3.57;;;13.30;59.90;;;;;;5045353;28;20452;-72
2024/02/26 11:54:54;;;;;;;8.13;4.33;;;13.20;59.70;;;;;;5043577;28;20418;-72
2024/02/26 11:57:21;;;;;;;7.20;4.20;;;13.30;60.00;;;;;;5047264;28;20419;-71
2024/02/26 11:59:47;;;;;;;7.37;3.70;;;12.80;61.00;;;;;;5044163;28;20467;-74
2024/02/26 12:02:48;;;;;;;6.40;3.80;;;12.70;61.60;;;;;;5047524;28;20530;-74
2024/02/26 12:05:19;;;;;;;9.83;3.97;;;12.70;61.70;;;;;;5056428;28;20923;-72
2024/02/26 12:07:49;;;;;;;8.10;3.83;;;12.70;61.70;;;;;;5051943;28;20473;-73
2024/02/26 12:10:34;;;;;;;6.77;3.77;;;12.80;61.50;;;;;;5050902;28;20919;-74
2024/02/26 12:13:14;;;;;;;7.27;4.10;;;12.60;62.20;;;;;;5047667;28;20438;-72
2024/02/26 12:15:43;;;;;;;9.03;4.20;;;12.70;61.90;;;;;;5053084;28;20450;-72
2024/02/26 12:18:10;;;;;;;8.63;4.10;;;12.60;62.50;;;;;;5051334;28;20463;-74
2024/02/26 12:20:37;;;;;;;4.77;3.30;;;12.70;62.20;;;;;;5045383;28;20463;-73
2024/02/26 12:23:06;;;;;;;7.80;4.30;;;12.70;62.30;;;;;;5042613;28;20427;-72
2024/02/26 12:25:33;;;;;;;8.60;3.97;;;12.90;61.60;;;;;;5045674;28;20424;-72
2024/02/26 12:27:59;;;;;;;6.83;3.87;;;13.10;61.60;;;;;;5040466;28;20471;-74
2024/02/26 12:30:29;;;;;;;6.27;3.30;;;13.10;61.30;;;;;;5050026;28;20422;-76
2024/02/26 12:33:00;;;;;;;7.77;4.00;;;13.20;61.20;;;;;;5042686;28;20465;-72
2024/02/26 12:35:26;;;;;;;7.40;3.70;;;13.30;61.00;;;;;;5046875;28;20422;-72
2024/02/26 12:37:54;;;;;;;10.80;3.90;;;13.10;61.30;;;;;;5047743;28;20417;-75
2024/02/26 12:40:20;;;;;;;7.13;3.77;;;13.10;61.30;;;;;;5046632;28;20412;-74
2024/02/26 12:42:46;;;;;;;8.83;4.40;;;13.10;61.30;;;;;;5046317;28;20438;-73
2024/02/26 12:45:14;;;;;;;5.80;3.90;;;13.30;61.30;;;;;;5045819;28;20418;-72
2024/02/26 12:47:41;;;;;;;6.60;4.37;;;13.60;60.90;;;;;;5040582;28;20698;-72
2024/02/26 12:50:08;;;;;;;6.87;3.77;;;13.60;60.70;;;;;;5052102;28;20515;-72